Guernewood, California
Current Conditions -  °F | °C
As of 3:13 AM on Friday 24 Oct 2014 (Local Time) from KSTS Reporting Station
Haze Haze  
Wind Chill: 52°   Ceiling: 300
Heat Index: 52°   Visibility: 1mi
Dew Point: 52°   Wind: 0mph
Humidity: 100%   Direction: NA
Pressure: 29.96"   Gusts: NA
Location:  38.5329°N, 123.009°W
Report Text: KSTS 241013Z AUTO 00000KT 1SM BR VV003 11/11 A2996 RMK AO2
Loading
Personal Weather Stations






























Interactive Weather Map
Tropical Storm Tracking
New forecast layout! Learn more

10-Day Weather Forecast

Advertisements
Track Severe Weather on mobile